Aérodrome :
LOGIN :

S'inscrire | Disclaimer

   EN    FR    IT 

 










Légende :    VFR   VFR Marginal   IFR   IFR Intensif   IFR Très Intensif
Visi : 
Plafond : 
>= 8 km
>= 3000ft
5 à 8 km
1000 à 3000 ft
1500m à 5 km
500 à 1000 ft
800 à 1500m
200 à 500 ft
< 800m
< 200 ft
Symboles :   Orages  Brouillard  Fortes neiges  Fortes précipitations  Vent > 20 kt
SIGMETs :   Divers  Orages  Givrage  Turbulence  Onde Orograph.  Cendres Volcan.







- Altitude de l'aérodrome : 82 ft
- Code IATA : QIE
- Voir les cartes d'approche


LFMI - Istres

DERNIER METAR :
  • 181500Z AUTO 18014KT CAVOK 27/11 Q1014 NOSIG

METARs EXPIRÉS :
  • 181430Z AUTO 17013KT CAVOK 28/11 Q1014 NOSIG
  • 181400Z AUTO 16013KT CAVOK 29/09 Q1014 NOSIG
  • 181330Z AUTO 18012KT 150V210 CAVOK 29/10 Q1015 NOSIG
  • 181300Z AUTO 17013KT CAVOK 28/10 Q1015 NOSIG
  • 181230Z AUTO 16013KT CAVOK 29/09 Q1015 NOSIG
  • 181200Z AUTO 15013KT CAVOK 28/09 Q1015 NOSIG

TAF TAF LFMI
Valide du 18 à 15h jusqu'au 19 à 15h UTC


181400Z 1815/1915 17013KT CAVOK
BECMG 1820/1821 10010KT
BECMG 1906/1907 13010KT
BECMG 1908/1909 17013KT
Pas de NOTAMs connus pour ce terrain.



MET'MAP, la Météo Aéronautique d'un coup d'oeil ! - Copyright ORBIFLY Décembre 2007 - Disclaimer

ORBIFLY MET'MAP TEAM :

Programmation & Développement : Alexandra Zaïnal
Conception & Développement : Baudouin d'Aumeries
Co-Programmation & Développement : Marc-Olivier Méhu
Soutien technique & logistique : Manuel Goepfert

Contact : metmap@orbifly.com




SOURCES & CREDITS :

   NOAA